sensor_id;sensor_type;location;lat;lon;timestamp;P1;durP1;ratioP1;P2;durP2;ratioP2
42144;SDS011;27813;43.516;11.890;2022-11-20T08:39:33;15.98;;;7.25;;
42144;SDS011;27813;43.516;11.890;2022-11-20T08:48:52;13.95;;;5.93;;
42144;SDS011;27813;43.516;11.890;2022-11-20T08:53:06;6.75;;;4.18;;
42144;SDS011;27813;43.516;11.890;2022-11-20T08:57:11;17.17;;;6.82;;
42144;SDS011;27813;43.516;11.890;2022-11-20T09:01:15;8.93;;;3.58;;
42144;SDS011;27813;43.516;11.890;2022-11-20T09:09:24;3.35;;;2.05;;
42144;SDS011;27813;43.516;11.890;2022-11-20T09:13:28;7.15;;;2.65;;
42144;SDS011;27813;43.516;11.890;2022-11-20T09:17:33;5.05;;;2.10;;
42144;SDS011;27813;43.516;11.890;2022-11-20T09:21:38;7.03;;;3.03;;
42144;SDS011;27813;43.516;11.890;2022-11-20T09:25:42;4.55;;;2.67;;
42144;SDS011;27813;43.516;11.890;2022-11-20T09:29:48;4.80;;;2.65;;
42144;SDS011;27813;43.516;11.890;2022-11-20T09:33:52;5.78;;;2.67;;
42144;SDS011;27813;43.516;11.890;2022-11-20T09:37:56;10.35;;;5.75;;
42144;SDS011;27813;43.516;11.890;2022-11-20T09:42:10;6.05;;;3.13;;
42144;SDS011;27813;43.516;11.890;2022-11-20T09:46:40;7.23;;;3.50;;
42144;SDS011;27813;43.516;11.890;2022-11-20T09:55:20;6.22;;;3.35;;
42144;SDS011;27813;43.516;11.890;2022-11-20T10:03:46;6.07;;;4.00;;
42144;SDS011;27813;43.516;11.890;2022-11-20T10:08:17;4.05;;;2.90;;
42144;SDS011;27813;43.516;11.890;2022-11-20T10:21:50;4.55;;;2.72;;
42144;SDS011;27813;43.516;11.890;2022-11-20T10:26:02;4.00;;;2.58;;
42144;SDS011;27813;43.516;11.890;2022-11-20T10:30:09;3.10;;;1.80;;
42144;SDS011;27813;43.516;11.890;2022-11-20T10:42:43;1.45;;;0.88;;
42144;SDS011;27813;43.516;11.890;2022-11-20T10:46:50;1.95;;;1.30;;
42144;SDS011;27813;43.516;11.890;2022-11-20T11:00:04;1.58;;;0.70;;
42144;SDS011;27813;43.516;11.890;2022-11-20T11:08:38;2.47;;;0.95;;
42144;SDS011;27813;43.516;11.890;2022-11-20T11:12:45;1.38;;;1.10;;
42144;SDS011;27813;43.516;11.890;2022-11-20T11:23:42;3.00;;;0.80;;
42144;SDS011;27813;43.516;11.890;2022-11-20T11:38:35;3.08;;;1.50;;
42144;SDS011;27813;43.516;11.890;2022-11-20T11:42:43;1.85;;;1.05;;
42144;SDS011;27813;43.516;11.890;2022-11-20T11:46:54;3.83;;;1.13;;
42144;SDS011;27813;43.516;11.890;2022-11-20T11:51:01;2.13;;;1.20;;
42144;SDS011;27813;43.516;11.890;2022-11-20T11:55:05;3.10;;;1.35;;
42144;SDS011;27813;43.516;11.890;2022-11-20T11:59:26;1.30;;;0.60;;
42144;SDS011;27813;43.516;11.890;2022-11-20T12:03:51;2.35;;;1.30;;
42144;SDS011;27813;43.516;11.890;2022-11-20T12:12:30;1.20;;;0.80;;
42144;SDS011;27813;43.516;11.890;2022-11-20T12:16:48;2.45;;;1.40;;
42144;SDS011;27813;43.516;11.890;2022-11-20T12:25:27;1.80;;;1.30;;
42144;SDS011;27813;43.516;11.890;2022-11-20T12:29:57;1.25;;;0.73;;
42144;SDS011;27813;43.516;11.890;2022-11-20T12:43:24;3.22;;;0.90;;
42144;SDS011;27813;43.516;11.890;2022-11-20T12:57:09;1.63;;;1.00;;
42144;SDS011;27813;43.516;11.890;2022-11-20T13:06:05;2.65;;;0.82;;
42144;SDS011;27813;43.516;11.890;2022-11-20T13:28:31;1.00;;;0.70;;
42144;SDS011;27813;43.516;11.890;2022-11-20T13:32:51;2.03;;;1.20;;
42144;SDS011;27813;43.516;11.890;2022-11-20T13:36:59;2.40;;;1.10;;
42144;SDS011;27813;43.516;11.890;2022-11-20T13:45:30;1.70;;;0.70;;
42144;SDS011;27813;43.516;11.890;2022-11-20T13:49:39;3.22;;;1.23;;
42144;SDS011;27813;43.516;11.890;2022-11-20T13:54:01;2.05;;;1.20;;
42144;SDS011;27813;43.516;11.890;2022-11-20T13:58:36;3.92;;;0.98;;
42144;SDS011;27813;43.516;11.890;2022-11-20T14:02:46;2.80;;;1.00;;
42144;SDS011;27813;43.516;11.890;2022-11-20T14:07:15;1.77;;;0.90;;
42144;SDS011;27813;43.516;11.890;2022-11-20T14:11:29;1.58;;;0.90;;
42144;SDS011;27813;43.516;11.890;2022-11-20T14:15:34;1.30;;;0.82;;
42144;SDS011;27813;43.516;11.890;2022-11-20T14:19:47;2.20;;;1.30;;
42144;SDS011;27813;43.516;11.890;2022-11-20T14:24:18;3.15;;;1.25;;
42144;SDS011;27813;43.516;11.890;2022-11-20T14:28:37;2.08;;;1.40;;
42144;SDS011;27813;43.516;11.890;2022-11-20T14:32:46;1.85;;;1.20;;
42144;SDS011;27813;43.516;11.890;2022-11-20T14:36:53;2.28;;;1.40;;
42144;SDS011;27813;43.516;11.890;2022-11-20T14:41:17;2.78;;;1.77;;
42144;SDS011;27813;43.516;11.890;2022-11-20T14:45:28;6.23;;;3.50;;
42144;SDS011;27813;43.516;11.890;2022-11-20T14:49:50;8.23;;;3.55;;
42144;SDS011;27813;43.516;11.890;2022-11-20T14:54:12;3.63;;;1.73;;
42144;SDS011;27813;43.516;11.890;2022-11-20T14:58:30;3.90;;;1.65;;
42144;SDS011;27813;43.516;11.890;2022-11-20T15:02:44;2.65;;;1.40;;
42144;SDS011;27813;43.516;11.890;2022-11-20T15:06:51;4.20;;;1.95;;
42144;SDS011;27813;43.516;11.890;2022-11-20T15:11:15;5.55;;;2.80;;
42144;SDS011;27813;43.516;11.890;2022-11-20T15:20:20;6.40;;;2.65;;
42144;SDS011;27813;43.516;11.890;2022-11-20T15:24:33;5.78;;;3.05;;
42144;SDS011;27813;43.516;11.890;2022-11-20T15:28:41;4.75;;;2.53;;
42144;SDS011;27813;43.516;11.890;2022-11-20T15:32:51;5.35;;;2.65;;
42144;SDS011;27813;43.516;11.890;2022-11-20T15:36:55;5.75;;;3.15;;
42144;SDS011;27813;43.516;11.890;2022-11-20T15:41:00;3.85;;;2.28;;
42144;SDS011;27813;43.516;11.890;2022-11-20T15:45:06;2.55;;;1.83;;
42144;SDS011;27813;43.516;11.890;2022-11-20T15:49:14;3.40;;;2.17;;
42144;SDS011;27813;43.516;11.890;2022-11-20T15:53:22;6.72;;;2.17;;
42144;SDS011;27813;43.516;11.890;2022-11-20T15:57:26;3.60;;;2.15;;
42144;SDS011;27813;43.516;11.890;2022-11-20T16:01:31;4.13;;;1.45;;
42144;SDS011;27813;43.516;11.890;2022-11-20T16:05:35;2.55;;;1.80;;
42144;SDS011;27813;43.516;11.890;2022-11-20T16:09:42;2.80;;;1.95;;
42144;SDS011;27813;43.516;11.890;2022-11-20T16:13:46;3.72;;;2.40;;
42144;SDS011;27813;43.516;11.890;2022-11-20T16:18:10;2.78;;;1.75;;
42144;SDS011;27813;43.516;11.890;2022-11-20T16:22:19;6.18;;;3.75;;
42144;SDS011;27813;43.516;11.890;2022-11-20T16:26:23;6.85;;;2.40;;
42144;SDS011;27813;43.516;11.890;2022-11-20T16:30:27;2.83;;;2.08;;
42144;SDS011;27813;43.516;11.890;2022-11-20T16:34:32;11.88;;;4.97;;
42144;SDS011;27813;43.516;11.890;2022-11-20T16:38:36;3.40;;;1.90;;
42144;SDS011;27813;43.516;11.890;2022-11-20T16:42:40;2.03;;;1.50;;
42144;SDS011;27813;43.516;11.890;2022-11-20T16:46:46;5.55;;;3.63;;
42144;SDS011;27813;43.516;11.890;2022-11-20T16:50:51;10.95;;;7.72;;
42144;SDS011;27813;43.516;11.890;2022-11-20T16:54:57;8.13;;;2.80;;
42144;SDS011;27813;43.516;11.890;2022-11-20T16:59:01;4.03;;;3.25;;
42144;SDS011;27813;43.516;11.890;2022-11-20T17:03:14;6.95;;;3.60;;
42144;SDS011;27813;43.516;11.890;2022-11-20T17:07:20;6.15;;;3.53;;
42144;SDS011;27813;43.516;11.890;2022-11-20T17:11:25;7.75;;;4.20;;
42144;SDS011;27813;43.516;11.890;2022-11-20T17:15:30;7.82;;;4.22;;
42144;SDS011;27813;43.516;11.890;2022-11-20T17:19:35;6.10;;;3.95;;
42144;SDS011;27813;43.516;11.890;2022-11-20T17:23:40;8.43;;;5.05;;
42144;SDS011;27813;43.516;11.890;2022-11-20T17:27:47;9.00;;;5.30;;
42144;SDS011;27813;43.516;11.890;2022-11-20T17:31:52;43.53;;;24.02;;
42144;SDS011;27813;43.516;11.890;2022-11-20T17:36:03;11.88;;;7.60;;
42144;SDS011;27813;43.516;11.890;2022-11-20T17:40:11;12.60;;;7.88;;
42144;SDS011;27813;43.516;11.890;2022-11-20T17:44:19;14.35;;;9.15;;
42144;SDS011;27813;43.516;11.890;2022-11-20T17:48:29;19.17;;;11.80;;
42144;SDS011;27813;43.516;11.890;2022-11-20T17:52:33;28.83;;;15.15;;
42144;SDS011;27813;43.516;11.890;2022-11-20T18:01:04;16.42;;;10.05;;
42144;SDS011;27813;43.516;11.890;2022-11-20T18:05:09;13.90;;;9.05;;
42144;SDS011;27813;43.516;11.890;2022-11-20T18:09:16;10.30;;;6.80;;
42144;SDS011;27813;43.516;11.890;2022-11-20T18:13:20;15.50;;;8.98;;
42144;SDS011;27813;43.516;11.890;2022-11-20T18:17:51;16.98;;;10.68;;
42144;SDS011;27813;43.516;11.890;2022-11-20T18:21:59;7.93;;;5.30;;
42144;SDS011;27813;43.516;11.890;2022-11-20T18:26:07;29.80;;;14.82;;
42144;SDS011;27813;43.516;11.890;2022-11-20T18:30:11;9.18;;;6.57;;
42144;SDS011;27813;43.516;11.890;2022-11-20T18:34:16;17.42;;;10.00;;
42144;SDS011;27813;43.516;11.890;2022-11-20T18:38:21;20.02;;;12.52;;
42144;SDS011;27813;43.516;11.890;2022-11-20T18:42:25;18.13;;;11.15;;
42144;SDS011;27813;43.516;11.890;2022-11-20T18:46:51;11.77;;;6.53;;
42144;SDS011;27813;43.516;11.890;2022-11-20T18:51:03;12.80;;;8.00;;
42144;SDS011;27813;43.516;11.890;2022-11-20T18:55:11;12.48;;;7.55;;
42144;SDS011;27813;43.516;11.890;2022-11-20T18:59:19;19.33;;;12.55;;
42144;SDS011;27813;43.516;11.890;2022-11-20T19:03:27;18.45;;;10.30;;
42144;SDS011;27813;43.516;11.890;2022-11-20T19:11:37;17.77;;;10.80;;
42144;SDS011;27813;43.516;11.890;2022-11-20T19:15:46;63.92;;;29.77;;
42144;SDS011;27813;43.516;11.890;2022-11-20T19:19:56;25.35;;;14.73;;
42144;SDS011;27813;43.516;11.890;2022-11-20T19:24:12;34.03;;;15.98;;
42144;SDS011;27813;43.516;11.890;2022-11-20T19:28:38;28.38;;;14.30;;
42144;SDS011;27813;43.516;11.890;2022-11-20T19:32:58;25.00;;;15.32;;
42144;SDS011;27813;43.516;11.890;2022-11-20T19:39:20;20.58;;;13.05;;
42144;SDS011;27813;43.516;11.890;2022-11-20T19:48:11;16.35;;;11.10;;
42144;SDS011;27813;43.516;11.890;2022-11-20T19:52:17;14.40;;;9.80;;
42144;SDS011;27813;43.516;11.890;2022-11-20T19:56:24;16.67;;;10.20;;
42144;SDS011;27813;43.516;11.890;2022-11-20T20:00:31;12.90;;;8.80;;
42144;SDS011;27813;43.516;11.890;2022-11-20T20:04:37;11.45;;;7.63;;
42144;SDS011;27813;43.516;11.890;2022-11-20T20:08:43;13.13;;;8.30;;
42144;SDS011;27813;43.516;11.890;2022-11-20T20:14:02;6.97;;;4.70;;
42144;SDS011;27813;43.516;11.890;2022-11-20T20:18:12;5.97;;;4.53;;
42144;SDS011;27813;43.516;11.890;2022-11-20T20:22:18;8.98;;;6.03;;
42144;SDS011;27813;43.516;11.890;2022-11-20T20:26:28;12.75;;;7.78;;
42144;SDS011;27813;43.516;11.890;2022-11-20T20:30:36;10.68;;;5.78;;
42144;SDS011;27813;43.516;11.890;2022-11-20T20:34:43;12.32;;;7.15;;
42144;SDS011;27813;43.516;11.890;2022-11-20T20:43:06;4.80;;;3.58;;
42144;SDS011;27813;43.516;11.890;2022-11-20T20:47:19;9.75;;;5.40;;
42144;SDS011;27813;43.516;11.890;2022-11-20T20:51:30;14.75;;;7.78;;
42144;SDS011;27813;43.516;11.890;2022-11-20T20:55:58;9.80;;;6.45;;
42144;SDS011;27813;43.516;11.890;2022-11-20T21:00:10;4.97;;;3.40;;
42144;SDS011;27813;43.516;11.890;2022-11-20T21:04:18;9.13;;;4.30;;
42144;SDS011;27813;43.516;11.890;2022-11-20T21:12:51;6.28;;;3.97;;
42144;SDS011;27813;43.516;11.890;2022-11-20T21:17:49;8.68;;;4.70;;
42144;SDS011;27813;43.516;11.890;2022-11-20T21:22:16;7.50;;;5.10;;
42144;SDS011;27813;43.516;11.890;2022-11-20T21:26:36;6.18;;;4.30;;
42144;SDS011;27813;43.516;11.890;2022-11-20T21:36:12;6.18;;;4.10;;
42144;SDS011;27813;43.516;11.890;2022-11-20T21:40:38;5.90;;;3.50;;
42144;SDS011;27813;43.516;11.890;2022-11-20T21:45:05;4.57;;;2.75;;
42144;SDS011;27813;43.516;11.890;2022-11-20T21:49:15;5.18;;;3.00;;
42144;SDS011;27813;43.516;11.890;2022-11-20T21:53:26;5.45;;;3.25;;
42144;SDS011;27813;43.516;11.890;2022-11-20T21:59:31;3.63;;;2.88;;
42144;SDS011;27813;43.516;11.890;2022-11-20T22:03:50;6.95;;;3.80;;
42144;SDS011;27813;43.516;11.890;2022-11-20T22:08:12;4.25;;;2.72;;
42144;SDS011;27813;43.516;11.890;2022-11-20T22:13:17;2.80;;;2.30;;
42144;SDS011;27813;43.516;11.890;2022-11-20T22:18:33;4.90;;;3.10;;
42144;SDS011;27813;43.516;11.890;2022-11-20T22:23:35;3.58;;;2.53;;
42144;SDS011;27813;43.516;11.890;2022-11-20T22:34:08;3.67;;;2.60;;
42144;SDS011;27813;43.516;11.890;2022-11-20T22:38:42;3.78;;;2.67;;
42144;SDS011;27813;43.516;11.890;2022-11-20T22:49:26;6.90;;;3.08;;
42144;SDS011;27813;43.516;11.890;2022-11-20T22:53:52;4.90;;;2.80;;
42144;SDS011;27813;43.516;11.890;2022-11-20T22:58:58;4.13;;;2.63;;
42144;SDS011;27813;43.516;11.890;2022-11-20T23:03:50;5.13;;;3.42;;
42144;SDS011;27813;43.516;11.890;2022-11-20T23:13:45;5.93;;;3.28;;
42144;SDS011;27813;43.516;11.890;2022-11-20T23:18:44;3.33;;;2.45;;
42144;SDS011;27813;43.516;11.890;2022-11-20T23:23:02;6.18;;;2.20;;
42144;SDS011;27813;43.516;11.890;2022-11-20T23:27:29;4.60;;;2.35;;
42144;SDS011;27813;43.516;11.890;2022-11-20T23:32:51;3.20;;;1.85;;
42144;SDS011;27813;43.516;11.890;2022-11-20T23:36:57;7.63;;;3.03;;
42144;SDS011;27813;43.516;11.890;2022-11-20T23:41:06;4.93;;;3.05;;
42144;SDS011;27813;43.516;11.890;2022-11-20T23:45:11;4.57;;;2.63;;
42144;SDS011;27813;43.516;11.890;2022-11-20T23:49:17;2.70;;;1.88;;
42144;SDS011;27813;43.516;11.890;2022-11-20T23:53:22;7.13;;;3.42;;
42144;SDS011;27813;43.516;11.890;2022-11-20T23:57:27;4.15;;;2.30;;
